ADDS METAR Data INFO
IDs: Format: Raw Decoded Include TAF

Data at: 1451 UTC 11 Dec 2017

KSAZ 111435Z AUTO 32011KT 10SM OVC015 00/M01 A2974 RMK AO2
KSAZ 111415Z AUTO 31010KT 10SM SCT017 BKN026 OVC035 00/M01 A2973 RMK AO2
KSAZ 111355Z AUTO 31009KT 10SM SCT019 BKN028 OVC033 00/M01 A2972 RMK AO2
KSAZ 111335Z AUTO 31010KT 10SM BKN019 OVC024 M01/M01 A2971 RMK AO2
KSAZ 111316Z AUTO 30010KT 10SM OVC024 M01/M01 A2970 RMK AO2
KSAZ 111255Z AUTO 00000KT 7SM OVC026 M02/M02 A2969 RMK AO2
KSAZ 111235Z AUTO 00000KT 7SM SCT021 OVC028 M03/M03 A2968 RMK AO2
KSAZ 111215Z AUTO 00000KT 7SM SCT013 BKN030 OVC039 M03/M03 A2969 RMK AO2
KSAZ 111155Z AUTO 00000KT 5SM UP SCT019 BKN026 OVC035 M03/M03 A2968 RMK AO2 P0001
KSAZ 111135Z AUTO 00000KT 10SM SCT009 OVC021 M03/M03 A2968 RMK AO2 P0001
KSAZ 111115Z AUTO 00000KT 10SM BKN023 OVC037 M03/M03 A2968 RMK AO2 P0001
KSAZ 111055Z AUTO 00000KT 5SM UP OVC023 M03/M03 A2968 RMK AO2 P0002
KSAZ 111035Z AUTO 20004KT 5SM -SN SCT021 BKN031 OVC037 M03/M03 A2969 RMK AO2 P0001
KSAZ 111015Z AUTO 16003KT 10SM UP SCT038 BKN046 OVC060 M03/M03 A2968 RMK AO2
KSAZ 110955Z AUTO 17007KT 10SM UP SCT028 BKN048 OVC070 M03/M03 A2968 RMK AO2 P0001
KSAZ 110935Z AUTO 18007KT 7SM -SN SCT032 BKN038 OVC070 M03/M04 A2970 RMK AO2
KSAZ 110915Z AUTO 20005KT 10SM SCT040 BKN060 OVC100 M04/M04 A2971 RMK AO2
KSAZ 110855Z AUTO 18005KT 10SM BKN040 BKN100 M04/M04 A2972 RMK AO2
KSAZ 110835Z AUTO 17004KT 10SM SCT040 SCT048 BKN090 M05/M05 A2973 RMK AO2
KSAZ 110815Z AUTO 17005KT 10SM SCT024 BKN048 OVC090 M04/M04 A2974 RMK AO2
KSAZ 110755Z AUTO 17005KT 10SM SCT008 SCT017 OVC024 M04/M04 A2976 RMK AO2 P0002
KSAZ 110735Z AUTO 17004KT 10SM BKN008 BKN015 OVC022 M04/M04 A2978 RMK AO2 P0002
KSAZ 110715Z AUTO 17006KT 10SM BKN008 OVC022 M04/M05 A2977 RMK AO2 P0001
KSAZ 110655Z AUTO 18005KT 7SM UP BKN010 OVC014 M04/M05 A2979 RMK AO2
KSAZ 110635Z AUTO 19006KT 4SM -SN SCT010 BKN022 OVC034 M05/M05 A2981 RMK AO2
KSAZ 110615Z AUTO 16008KT 2SM -SN SCT007 BKN018 OVC023 M05/M06 A2980 RMK AO2
KSAZ 110555Z AUTO 17007KT 1 1/2SM -SN BKN005 OVC018 M05/M06 A2983 RMK AO2
KSAZ 110535Z AUTO 17006KT 1 1/4SM -SN OVC007 M05/M06 A2984 RMK AO2
KSAZ 110515Z AUTO 19005KT 1 1/4SM SN BKN007 OVC012 M05/M07 A2986 RMK AO2
KSAZ 110455Z AUTO 18005KT 4SM -SN SCT019 BKN041 OVC075 M05/M07 A2986 RMK AO2
KSAZ 110435Z AUTO 16005KT 10SM SCT060 BKN075 OVC100 M06/M07 A2986 RMK AO2
KSAZ 110415Z AUTO 14004KT 10SM BKN050 OVC100 M06/M07 A2987 RMK AO2
KSAZ 110355Z AUTO 15003KT 10SM BKN050 BKN065 OVC075 M06/M07 A2990 RMK AO2
KSAZ 110335Z AUTO 00000KT 10SM SCT050 BKN075 OVC090 M06/M07 A2992 RMK AO2
KSAZ 110315Z AUTO 00000KT 10SM OVC075 M06/M08 A2993 RMK AO2
KSAZ 110255Z AUTO 00000KT 10SM OVC075 M06/M08 A2994 RMK AO2
KSAZ 110235Z AUTO 00000KT 10SM OVC075 M06/M08 A2995 RMK AO2
KSAZ 110215Z AUTO 00000KT 10SM OVC075 M07/M08 A2995 RMK AO2
KSAZ 110155Z AUTO 00000KT 10SM BKN075 M07/M08 A2995 RMK AO2
KSAZ 110135Z AUTO 00000KT 10SM OVC075 M07/M08 A2994 RMK AO2
KSAZ 110115Z AUTO 22003KT 10SM BKN075 M08/M09 A2996 RMK AO2
KSAZ 110055Z AUTO 00000KT 10SM CLR M08/M09 A2997 RMK AO2
KSAZ 110035Z AUTO 00000KT 10SM CLR M07/M09 A2998 RMK AO2
KSAZ 110015Z AUTO 00000KT 10SM CLR M08/M09 A2999 RMK AO2
KSAZ 102355Z AUTO 00000KT 10SM CLR M07/M09 A3000 RMK AO2
KSAZ 102335Z AUTO 26004KT 10SM CLR M07/M09 A3001 RMK AO2
KSAZ 102315Z AUTO 25004KT 10SM CLR M07/M09 A3000 RMK AO2
KSAZ 102255Z AUTO 25003KT 10SM CLR M06/M09 A3001 RMK AO2
KSAZ 102235Z AUTO 26004KT 10SM CLR M07/M09 A3001 RMK AO2
KSAZ 102215Z AUTO 28004KT 10SM CLR M06/M09 A3001 RMK AO2
KSAZ 102155Z AUTO 30003KT 10SM CLR M04/M08 A3000 RMK AO2
KSAZ 102135Z AUTO 28005KT 10SM CLR M03/M08 A3000 RMK AO2
KSAZ 102115Z AUTO 29005KT 10SM CLR M03/M08 A3000 RMK AO2
KSAZ 102055Z AUTO 30005KT 10SM CLR M02/M08 A3000 RMK AO2
KSAZ 102035Z AUTO 29006KT 10SM CLR M02/M08 A2999 RMK AO2
KSAZ 102015Z AUTO 27008KT 10SM CLR M02/M08 A2999 RMK AO2
KSAZ 101955Z AUTO 29006KT 10SM SCT100 M03/M08 A2999 RMK AO2
KSAZ 101935Z AUTO 30006KT 10SM OVC100 M03/M08 A2999 RMK AO2
KSAZ 101915Z AUTO 30004KT 10SM OVC110 M03/M08 A2999 RMK AO2
KSAZ 101855Z AUTO 32006KT 10SM OVC110 M03/M08 A3000 RMK AO2
KSAZ 101835Z AUTO 32006KT 10SM SCT020 OVC110 M03/M08 A3000 RMK AO2
KSAZ 101815Z AUTO 35004KT 10SM SCT018 BKN046 OVC095 M04/M08 A3000 RMK AO2
KSAZ 101755Z AUTO 29007KT 10SM BKN018 M03/M08 A3000 RMK AO2
KSAZ 101735Z AUTO 34005KT 10SM BKN018 BKN100 M04/M08 A3000 RMK AO2
KSAZ 101715Z AUTO 35006KT 10SM SCT016 SCT100 M04/M08 A3000 RMK AO2
KSAZ 101655Z AUTO 34008KT 10SM SCT016 M04/M08 A2999 RMK AO2
KSAZ 101635Z AUTO 33006KT 10SM BKN016 M04/M08 A2997 RMK AO2
KSAZ 101615Z AUTO 33007KT 10SM OVC016 M05/M08 A2997 RMK AO2
KSAZ 101555Z AUTO 33007KT 10SM OVC016 M05/M08 A2997 RMK AO2
KSAZ 101535Z AUTO 34006KT 10SM OVC016 M05/M08 A2997 RMK AO2
KSAZ 101515Z AUTO 33006KT 10SM OVC016 M05/M08 A2997 RMK AO2
KSAZ 101455Z AUTO 33008KT 10SM OVC016 M05/M08 A2997 RMK AO2
KSAZ 101435Z AUTO 33010KT 10SM OVC016 M05/M08 A2996 RMK AO2
KSAZ 101415Z AUTO 34005KT 10SM OVC014 M05/M07 A2995 RMK AO2
KSAZ 101355Z AUTO 33008KT 10SM OVC014 M05/M07 A2994 RMK AO2
KSAZ 101335Z AUTO 33007KT 10SM OVC014 M05/M07 A2994 RMK AO2
KSAZ 101315Z AUTO 34008KT 10SM OVC014 M05/M07 A2993 RMK AO2
KSAZ 101255Z AUTO 33007KT 10SM OVC014 M05/M07 A2992 RMK AO2
KSAZ 101235Z AUTO 34010KT 10SM OVC014 M05/M07 A2991 RMK AO2
KSAZ 101215Z AUTO 32006KT 10SM OVC016 M05/M07 A2990 RMK AO2
KSAZ 101155Z AUTO 33005KT 10SM OVC018 M05/M07 A2989 RMK AO2
KSAZ 101135Z AUTO 32007KT 10SM OVC018 M05/M07 A2988 RMK AO2
KSAZ 101115Z AUTO 32008KT 10SM OVC018 M05/M07 A2989 RMK AO2
KSAZ 101055Z AUTO 32008KT 10SM OVC020 M06/M07 A2987 RMK AO2
KSAZ 101035Z AUTO 32007KT 10SM OVC020 M06/M07 A2987 RMK AO2
KSAZ 101015Z AUTO 32006KT 10SM SCT020 M07/M07 A2985 RMK AO2
KSAZ 100955Z AUTO 32006KT 10SM CLR M07/M08 A2985 RMK AO2
KSAZ 100935Z AUTO 32008KT 10SM CLR M06/M07 A2983 RMK AO2
KSAZ 100915Z AUTO 32005KT 10SM CLR M06/M07 A2983 RMK AO2
KSAZ 100855Z AUTO 32008KT 10SM CLR M06/M07 A2982 RMK AO2
KSAZ 100835Z AUTO 31007KT 10SM CLR M06/M07 A2981 RMK AO2
KSAZ 100815Z AUTO 31009KT 10SM CLR M06/M07 A2981 RMK AO2
KSAZ 100755Z AUTO 30007KT 10SM CLR M07/M07 A2979 RMK AO2
KSAZ 100735Z AUTO 29007KT 10SM CLR M07/M07 A2978 RMK AO2
KSAZ 100715Z AUTO 30006KT 10SM CLR M09/M09 A2978 RMK AO2
KSAZ 100655Z AUTO 29004KT 10SM CLR M11/M11 A2978 RMK AO2
KSAZ 100635Z AUTO 00000KT 10SM CLR M09/M11 A2977 RMK AO2
KSAZ 100615Z AUTO 00000KT 10SM CLR M09/M11 A2976 RMK AO2
KSAZ 100555Z AUTO 00000KT 10SM CLR M08/M09 A2975 RMK AO2
KSAZ 100536Z AUTO 00000KT 10SM CLR M09/M10 A2974 RMK AO2
KSAZ 100515Z AUTO 00000KT 10SM CLR M09/M10 A2975 RMK AO2
KSAZ 100455Z AUTO 17003KT 10SM CLR M08/M09 A2975 RMK AO2
KSAZ 100435Z AUTO 18004KT 10SM CLR M08/M10 A2976 RMK AO2
KSAZ 100415Z AUTO 17003KT 10SM CLR M08/M10 A2977 RMK AO2
KSAZ 100355Z AUTO 18005KT 10SM CLR M09/M11 A2977 RMK AO2
KSAZ 100335Z AUTO 18004KT 10SM CLR M08/M10 A2979 RMK AO2
KSAZ 100315Z AUTO 20005KT 10SM CLR M08/M10 A2979 RMK AO2
KSAZ 100255Z AUTO 19005KT 10SM CLR M07/M10 A2980 RMK AO2